sensor_id;sensor_type;location;lat;lon;timestamp;temperature;humidity
41318;DHT22;27067;51.554;7.026;2023-04-03T00:01:06;15.60;89.10
41318;DHT22;27067;51.554;7.026;2023-04-03T00:03:32;15.60;89.10
41318;DHT22;27067;51.554;7.026;2023-04-03T00:05:58;15.60;89.10
41318;DHT22;27067;51.554;7.026;2023-04-03T00:08:23;15.60;89.10
41318;DHT22;27067;51.554;7.026;2023-04-03T00:10:50;15.60;89.10
41318;DHT22;27067;51.554;7.026;2023-04-03T00:13:15;15.60;89.10
41318;DHT22;27067;51.554;7.026;2023-04-03T00:15:41;15.60;89.10
41318;DHT22;27067;51.554;7.026;2023-04-03T00:18:07;15.60;89.20
41318;DHT22;27067;51.554;7.026;2023-04-03T00:20:33;15.60;89.10
41318;DHT22;27067;51.554;7.026;2023-04-03T00:22:59;15.60;89.00
41318;DHT22;27067;51.554;7.026;2023-04-03T00:25:25;15.60;89.00
41318;DHT22;27067;51.554;7.026;2023-04-03T00:27:50;15.60;89.00
41318;DHT22;27067;51.554;7.026;2023-04-03T00:30:18;15.60;89.00
41318;DHT22;27067;51.554;7.026;2023-04-03T00:32:44;15.60;88.90
41318;DHT22;27067;51.554;7.026;2023-04-03T00:35:10;15.60;89.00
41318;DHT22;27067;51.554;7.026;2023-04-03T00:37:36;15.60;88.90
41318;DHT22;27067;51.554;7.026;2023-04-03T00:40:02;15.60;89.00
41318;DHT22;27067;51.554;7.026;2023-04-03T00:42:28;15.60;89.00
41318;DHT22;27067;51.554;7.026;2023-04-03T00:47:23;15.60;89.00
41318;DHT22;27067;51.554;7.026;2023-04-03T00:49:50;15.60;89.00
41318;DHT22;27067;51.554;7.026;2023-04-03T00:52:19;15.60;89.00
41318;DHT22;27067;51.554;7.026;2023-04-03T00:54:48;15.50;88.90
41318;DHT22;27067;51.554;7.026;2023-04-03T00:57:16;15.60;88.90
41318;DHT22;27067;51.554;7.026;2023-04-03T00:59:48;15.60;89.00
41318;DHT22;27067;51.554;7.026;2023-04-03T01:02:15;15.50;88.90
41318;DHT22;27067;51.554;7.026;2023-04-03T01:04:43;15.50;89.00
41318;DHT22;27067;51.554;7.026;2023-04-03T01:07:18;15.50;89.00
41318;DHT22;27067;51.554;7.026;2023-04-03T01:09:47;15.50;89.00
41318;DHT22;27067;51.554;7.026;2023-04-03T01:14:54;15.50;88.90
41318;DHT22;27067;51.554;7.026;2023-04-03T01:17:46;15.50;89.00
41318;DHT22;27067;51.554;7.026;2023-04-03T01:25:41;15.50;89.00
41318;DHT22;27067;51.554;7.026;2023-04-03T01:28:09;15.50;89.00
41318;DHT22;27067;51.554;7.026;2023-04-03T01:33:33;15.50;89.10
41318;DHT22;27067;51.554;7.026;2023-04-03T01:35:59;15.50;89.10
41318;DHT22;27067;51.554;7.026;2023-04-03T01:38:25;15.40;89.20
41318;DHT22;27067;51.554;7.026;2023-04-03T01:40:51;15.50;89.20
41318;DHT22;27067;51.554;7.026;2023-04-03T01:43:16;15.50;89.30
41318;DHT22;27067;51.554;7.026;2023-04-03T01:45:42;15.40;89.10
41318;DHT22;27067;51.554;7.026;2023-04-03T01:48:08;15.40;89.10
41318;DHT22;27067;51.554;7.026;2023-04-03T01:50:33;15.40;89.00
41318;DHT22;27067;51.554;7.026;2023-04-03T01:52:59;15.50;89.00
41318;DHT22;27067;51.554;7.026;2023-04-03T01:55:25;15.40;88.90
41318;DHT22;27067;51.554;7.026;2023-04-03T01:57:50;15.40;88.90
41318;DHT22;27067;51.554;7.026;2023-04-03T02:00:16;15.40;88.90
41318;DHT22;27067;51.554;7.026;2023-04-03T02:02:42;15.40;89.00
41318;DHT22;27067;51.554;7.026;2023-04-03T02:05:08;15.40;89.10
41318;DHT22;27067;51.554;7.026;2023-04-03T02:07:33;15.40;89.10
41318;DHT22;27067;51.554;7.026;2023-04-03T02:09:59;15.40;89.10
41318;DHT22;27067;51.554;7.026;2023-04-03T02:12:25;15.40;89.00
41318;DHT22;27067;51.554;7.026;2023-04-03T02:14:50;15.40;89.10
41318;DHT22;27067;51.554;7.026;2023-04-03T02:17:16;15.40;89.10
41318;DHT22;27067;51.554;7.026;2023-04-03T02:19:41;15.40;89.10
41318;DHT22;27067;51.554;7.026;2023-04-03T02:22:07;15.40;89.10
41318;DHT22;27067;51.554;7.026;2023-04-03T02:24:33;15.40;89.10
41318;DHT22;27067;51.554;7.026;2023-04-03T02:26:58;15.40;89.00
41318;DHT22;27067;51.554;7.026;2023-04-03T02:29:24;15.40;88.90
41318;DHT22;27067;51.554;7.026;2023-04-03T02:31:50;15.40;89.00
41318;DHT22;27067;51.554;7.026;2023-04-03T02:34:16;15.40;89.00
41318;DHT22;27067;51.554;7.026;2023-04-03T02:36:42;15.40;89.00
41318;DHT22;27067;51.554;7.026;2023-04-03T02:39:08;15.40;88.90
41318;DHT22;27067;51.554;7.026;2023-04-03T02:41:33;15.40;88.90
41318;DHT22;27067;51.554;7.026;2023-04-03T02:44:02;15.40;88.80
41318;DHT22;27067;51.554;7.026;2023-04-03T02:46:28;15.40;88.90
41318;DHT22;27067;51.554;7.026;2023-04-03T02:48:54;15.30;88.80
41318;DHT22;27067;51.554;7.026;2023-04-03T02:51:19;15.30;89.00
41318;DHT22;27067;51.554;7.026;2023-04-03T02:53:45;15.30;89.00
41318;DHT22;27067;51.554;7.026;2023-04-03T02:56:11;15.30;89.00
41318;DHT22;27067;51.554;7.026;2023-04-03T02:58:36;15.30;88.90
41318;DHT22;27067;51.554;7.026;2023-04-03T03:01:02;15.30;88.90
41318;DHT22;27067;51.554;7.026;2023-04-03T03:03:28;15.30;89.00
41318;DHT22;27067;51.554;7.026;2023-04-03T03:06:04;15.30;89.00
41318;DHT22;27067;51.554;7.026;2023-04-03T03:08:30;15.30;89.00
41318;DHT22;27067;51.554;7.026;2023-04-03T03:10:56;15.30;88.90
41318;DHT22;27067;51.554;7.026;2023-04-03T03:13:22;15.30;89.00
41318;DHT22;27067;51.554;7.026;2023-04-03T03:15:48;15.30;89.00
41318;DHT22;27067;51.554;7.026;2023-04-03T03:18:13;15.30;89.00
41318;DHT22;27067;51.554;7.026;2023-04-03T03:20:39;15.30;89.10
41318;DHT22;27067;51.554;7.026;2023-04-03T03:23:05;15.30;89.10
41318;DHT22;27067;51.554;7.026;2023-04-03T03:25:31;15.30;89.10
41318;DHT22;27067;51.554;7.026;2023-04-03T03:27:56;15.20;89.00
41318;DHT22;27067;51.554;7.026;2023-04-03T03:30:22;15.30;89.00
41318;DHT22;27067;51.554;7.026;2023-04-03T03:32:47;15.30;89.10
41318;DHT22;27067;51.554;7.026;2023-04-03T03:35:13;15.20;89.00
41318;DHT22;27067;51.554;7.026;2023-04-03T03:37:39;15.30;89.00
41318;DHT22;27067;51.554;7.026;2023-04-03T03:40:05;15.20;89.00
41318;DHT22;27067;51.554;7.026;2023-04-03T03:42:31;15.20;89.10
41318;DHT22;27067;51.554;7.026;2023-04-03T03:44:57;15.20;89.80
41318;DHT22;27067;51.554;7.026;2023-04-03T03:47:22;15.20;90.10
41318;DHT22;27067;51.554;7.026;2023-04-03T03:49:48;15.30;90.30
41318;DHT22;27067;51.554;7.026;2023-04-03T03:52:14;15.30;90.30
41318;DHT22;27067;51.554;7.026;2023-04-03T03:54:40;15.40;90.30
41318;DHT22;27067;51.554;7.026;2023-04-03T03:57:05;15.60;90.20
41318;DHT22;27067;51.554;7.026;2023-04-03T03:59:31;15.70;90.00
41318;DHT22;27067;51.554;7.026;2023-04-03T04:01:57;15.70;89.70
41318;DHT22;27067;51.554;7.026;2023-04-03T04:04:23;15.80;89.30
41318;DHT22;27067;51.554;7.026;2023-04-03T04:06:48;15.90;89.00
41318;DHT22;27067;51.554;7.026;2023-04-03T04:09:14;15.90;88.80
41318;DHT22;27067;51.554;7.026;2023-04-03T04:11:40;15.90;88.60
41318;DHT22;27067;51.554;7.026;2023-04-03T04:14:06;16.00;88.70
41318;DHT22;27067;51.554;7.026;2023-04-03T04:16:32;16.00;88.70
41318;DHT22;27067;51.554;7.026;2023-04-03T04:18:58;16.10;88.80
41318;DHT22;27067;51.554;7.026;2023-04-03T04:21:24;16.10;88.70
41318;DHT22;27067;51.554;7.026;2023-04-03T04:23:49;16.20;88.60
41318;DHT22;27067;51.554;7.026;2023-04-03T04:26:15;16.30;88.40
41318;DHT22;27067;51.554;7.026;2023-04-03T04:28:41;16.40;88.30
41318;DHT22;27067;51.554;7.026;2023-04-03T04:31:06;16.40;88.00
41318;DHT22;27067;51.554;7.026;2023-04-03T04:33:32;16.50;87.80
41318;DHT22;27067;51.554;7.026;2023-04-03T04:35:58;16.60;87.60
41318;DHT22;27067;51.554;7.026;2023-04-03T04:38:25;16.60;87.40
41318;DHT22;27067;51.554;7.026;2023-04-03T04:40:50;16.60;87.20
41318;DHT22;27067;51.554;7.026;2023-04-03T04:43:16;16.70;87.00
41318;DHT22;27067;51.554;7.026;2023-04-03T04:45:42;16.70;86.80
41318;DHT22;27067;51.554;7.026;2023-04-03T04:48:08;16.70;86.70
41318;DHT22;27067;51.554;7.026;2023-04-03T04:50:34;16.70;86.60
41318;DHT22;27067;51.554;7.026;2023-04-03T04:52:59;16.70;86.60
41318;DHT22;27067;51.554;7.026;2023-04-03T04:55:25;16.70;86.60
41318;DHT22;27067;51.554;7.026;2023-04-03T04:57:51;16.60;86.60
41318;DHT22;27067;51.554;7.026;2023-04-03T05:00:17;16.60;86.60
41318;DHT22;27067;51.554;7.026;2023-04-03T05:02:43;16.60;86.70
41318;DHT22;27067;51.554;7.026;2023-04-03T05:05:09;16.50;86.70
41318;DHT22;27067;51.554;7.026;2023-04-03T05:07:35;16.50;86.80
41318;DHT22;27067;51.554;7.026;2023-04-03T05:10:02;16.50;87.00
41318;DHT22;27067;51.554;7.026;2023-04-03T05:12:28;16.50;87.10
41318;DHT22;27067;51.554;7.026;2023-04-03T05:14:54;16.50;87.30
41318;DHT22;27067;51.554;7.026;2023-04-03T05:17:19;16.40;87.40
41318;DHT22;27067;51.554;7.026;2023-04-03T05:19:45;16.40;87.30
41318;DHT22;27067;51.554;7.026;2023-04-03T05:22:11;16.40;87.30
41318;DHT22;27067;51.554;7.026;2023-04-03T05:24:37;16.40;87.30
41318;DHT22;27067;51.554;7.026;2023-04-03T05:27:03;16.40;87.30
41318;DHT22;27067;51.554;7.026;2023-04-03T05:29:28;16.40;87.30
41318;DHT22;27067;51.554;7.026;2023-04-03T05:31:54;16.40;87.30
41318;DHT22;27067;51.554;7.026;2023-04-03T05:34:21;16.40;87.30
41318;DHT22;27067;51.554;7.026;2023-04-03T05:36:46;16.40;87.30
41318;DHT22;27067;51.554;7.026;2023-04-03T05:39:12;16.40;87.30
41318;DHT22;27067;51.554;7.026;2023-04-03T05:41:38;16.40;87.20
41318;DHT22;27067;51.554;7.026;2023-04-03T05:44:03;16.40;87.20
41318;DHT22;27067;51.554;7.026;2023-04-03T05:46:29;16.50;87.20
41318;DHT22;27067;51.554;7.026;2023-04-03T05:48:55;16.50;87.10
41318;DHT22;27067;51.554;7.026;2023-04-03T05:51:30;16.50;87.10
41318;DHT22;27067;51.554;7.026;2023-04-03T05:54:11;16.50;87.00
41318;DHT22;27067;51.554;7.026;2023-04-03T05:56:38;16.50;87.00
41318;DHT22;27067;51.554;7.026;2023-04-03T05:59:04;16.50;86.90
41318;DHT22;27067;51.554;7.026;2023-04-03T06:01:30;16.50;86.90
41318;DHT22;27067;51.554;7.026;2023-04-03T06:03:56;16.60;86.80
41318;DHT22;27067;51.554;7.026;2023-04-03T06:06:24;16.60;86.80
41318;DHT22;27067;51.554;7.026;2023-04-03T06:08:50;16.50;86.70
41318;DHT22;27067;51.554;7.026;2023-04-03T06:11:16;16.50;86.60
41318;DHT22;27067;51.554;7.026;2023-04-03T06:13:41;16.60;86.70
41318;DHT22;27067;51.554;7.026;2023-04-03T06:16:11;16.50;86.70
41318;DHT22;27067;51.554;7.026;2023-04-03T06:18:39;16.50;86.60
41318;DHT22;27067;51.554;7.026;2023-04-03T06:21:05;16.50;86.60
41318;DHT22;27067;51.554;7.026;2023-04-03T06:23:33;16.50;86.70
41318;DHT22;27067;51.554;7.026;2023-04-03T06:25:59;16.60;87.30
41318;DHT22;27067;51.554;7.026;2023-04-03T06:28:25;16.50;86.70
41318;DHT22;27067;51.554;7.026;2023-04-03T06:30:51;16.50;86.70
41318;DHT22;27067;51.554;7.026;2023-04-03T06:33:17;16.50;86.70
41318;DHT22;27067;51.554;7.026;2023-04-03T06:35:42;16.50;86.70
41318;DHT22;27067;51.554;7.026;2023-04-03T06:38:08;16.50;86.80
41318;DHT22;27067;51.554;7.026;2023-04-03T06:40:35;16.50;86.70
41318;DHT22;27067;51.554;7.026;2023-04-03T06:43:01;16.50;86.80
41318;DHT22;27067;51.554;7.026;2023-04-03T06:45:27;16.50;86.80
41318;DHT22;27067;51.554;7.026;2023-04-03T06:47:53;16.50;86.70
41318;DHT22;27067;51.554;7.026;2023-04-03T06:50:19;16.50;86.70
41318;DHT22;27067;51.554;7.026;2023-04-03T06:52:45;16.50;86.80
41318;DHT22;27067;51.554;7.026;2023-04-03T06:55:11;16.50;86.80
41318;DHT22;27067;51.554;7.026;2023-04-03T06:57:37;16.50;86.80
41318;DHT22;27067;51.554;7.026;2023-04-03T07:00:05;16.50;86.80
41318;DHT22;27067;51.554;7.026;2023-04-03T07:02:31;16.50;87.30
41318;DHT22;27067;51.554;7.026;2023-04-03T07:04:57;16.50;86.70
41318;DHT22;27067;51.554;7.026;2023-04-03T07:07:22;16.50;86.60
41318;DHT22;27067;51.554;7.026;2023-04-03T07:09:48;16.50;86.70
41318;DHT22;27067;51.554;7.026;2023-04-03T07:12:15;16.40;86.60
41318;DHT22;27067;51.554;7.026;2023-04-03T07:14:41;16.40;86.70
41318;DHT22;27067;51.554;7.026;2023-04-03T07:17:08;16.40;86.70
41318;DHT22;27067;51.554;7.026;2023-04-03T07:19:33;16.30;86.90
41318;DHT22;27067;51.554;7.026;2023-04-03T07:21:59;16.30;87.10
41318;DHT22;27067;51.554;7.026;2023-04-03T07:24:25;16.30;86.90
41318;DHT22;27067;51.554;7.026;2023-04-03T07:26:52;16.30;86.90
41318;DHT22;27067;51.554;7.026;2023-04-03T07:29:18;16.30;86.90
41318;DHT22;27067;51.554;7.026;2023-04-03T07:31:45;16.20;87.00
41318;DHT22;27067;51.554;7.026;2023-04-03T07:34:11;16.20;86.90
41318;DHT22;27067;51.554;7.026;2023-04-03T07:36:37;16.20;87.00
41318;DHT22;27067;51.554;7.026;2023-04-03T07:39:03;16.10;87.00
41318;DHT22;27067;51.554;7.026;2023-04-03T07:41:28;16.10;87.10
41318;DHT22;27067;51.554;7.026;2023-04-03T07:43:55;16.10;87.20
41318;DHT22;27067;51.554;7.026;2023-04-03T07:46:22;16.00;87.30
41318;DHT22;27067;51.554;7.026;2023-04-03T07:48:48;16.00;87.30
41318;DHT22;27067;51.554;7.026;2023-04-03T07:51:14;16.00;87.40
41318;DHT22;27067;51.554;7.026;2023-04-03T07:53:40;16.00;87.10
41318;DHT22;27067;51.554;7.026;2023-04-03T07:56:06;16.10;87.00
41318;DHT22;27067;51.554;7.026;2023-04-03T07:58:35;16.00;86.90
41318;DHT22;27067;51.554;7.026;2023-04-03T08:01:01;16.10;86.60
41318;DHT22;27067;51.554;7.026;2023-04-03T08:03:27;16.10;86.50
41318;DHT22;27067;51.554;7.026;2023-04-03T08:05:53;16.10;86.40
41318;DHT22;27067;51.554;7.026;2023-04-03T08:08:22;16.10;86.30
41318;DHT22;27067;51.554;7.026;2023-04-03T08:10:50;16.10;86.20
41318;DHT22;27067;51.554;7.026;2023-04-03T08:13:16;16.00;86.20
41318;DHT22;27067;51.554;7.026;2023-04-03T08:15:42;16.00;86.10
41318;DHT22;27067;51.554;7.026;2023-04-03T08:18:07;16.00;86.20
41318;DHT22;27067;51.554;7.026;2023-04-03T08:20:33;16.00;86.10
41318;DHT22;27067;51.554;7.026;2023-04-03T08:22:59;16.00;86.20
41318;DHT22;27067;51.554;7.026;2023-04-03T08:25:24;16.00;86.20
41318;DHT22;27067;51.554;7.026;2023-04-03T08:27:50;16.00;86.20
41318;DHT22;27067;51.554;7.026;2023-04-03T08:30:16;15.90;86.00
41318;DHT22;27067;51.554;7.026;2023-04-03T08:32:42;16.00;86.10
41318;DHT22;27067;51.554;7.026;2023-04-03T08:35:09;15.90;86.00
41318;DHT22;27067;51.554;7.026;2023-04-03T08:37:37;15.90;85.90
41318;DHT22;27067;51.554;7.026;2023-04-03T08:40:08;15.90;85.90
41318;DHT22;27067;51.554;7.026;2023-04-03T08:48:06;15.90;85.80
41318;DHT22;27067;51.554;7.026;2023-04-03T08:50:40;15.80;85.90
41318;DHT22;27067;51.554;7.026;2023-04-03T08:53:14;15.80;86.00
41318;DHT22;27067;51.554;7.026;2023-04-03T08:55:50;15.80;86.20
41318;DHT22;27067;51.554;7.026;2023-04-03T08:58:29;15.70;86.20
41318;DHT22;27067;51.554;7.026;2023-04-03T09:01:02;15.70;86.40
41318;DHT22;27067;51.554;7.026;2023-04-03T09:03:41;15.60;86.60
41318;DHT22;27067;51.554;7.026;2023-04-03T09:06:19;15.60;86.90
41318;DHT22;27067;51.554;7.026;2023-04-03T09:16:56;15.50;87.80
41318;DHT22;27067;51.554;7.026;2023-04-03T09:22:26;15.50;87.90
41318;DHT22;27067;51.554;7.026;2023-04-03T09:25:18;15.50;87.90
41318;DHT22;27067;51.554;7.026;2023-04-03T09:27:45;15.50;87.90
41318;DHT22;27067;51.554;7.026;2023-04-03T09:30:22;17.30;89.00
41318;DHT22;27067;51.554;7.026;2023-04-03T09:32:51;15.40;88.00
41318;DHT22;27067;51.554;7.026;2023-04-03T09:35:26;15.40;88.00
41318;DHT22;27067;51.554;7.026;2023-04-03T09:37:55;15.40;88.10
41318;DHT22;27067;51.554;7.026;2023-04-03T09:43:52;15.40;87.90
41318;DHT22;27067;51.554;7.026;2023-04-03T09:45:47;15.50;87.70
41318;DHT22;27067;51.554;7.026;2023-04-03T09:53:37;15.30;86.90
41318;DHT22;27067;51.554;7.026;2023-04-03T09:56:27;15.60;87.20
41318;DHT22;27067;51.554;7.026;2023-04-03T09:59:13;15.50;86.80
41318;DHT22;27067;51.554;7.026;2023-04-03T10:01:39;15.60;86.80
41318;DHT22;27067;51.554;7.026;2023-04-03T10:04:16;15.60;86.60
41318;DHT22;27067;51.554;7.026;2023-04-03T10:09:24;15.60;86.50
41318;DHT22;27067;51.554;7.026;2023-04-03T10:12:11;15.60;86.40
41318;DHT22;27067;51.554;7.026;2023-04-03T10:14:59;15.50;86.30
41318;DHT22;27067;51.554;7.026;2023-04-03T10:17:37;15.50;86.20
41318;DHT22;27067;51.554;7.026;2023-04-03T10:20:39;15.50;86.30
41318;DHT22;27067;51.554;7.026;2023-04-03T10:23:28;15.40;86.40
41318;DHT22;27067;51.554;7.026;2023-04-03T10:28:57;15.40;86.80
41318;DHT22;27067;51.554;7.026;2023-04-03T10:31:44;15.40;87.00
41318;DHT22;27067;51.554;7.026;2023-04-03T10:34:31;15.30;87.40
41318;DHT22;27067;51.554;7.026;2023-04-03T10:42:18;15.20;87.90
41318;DHT22;27067;51.554;7.026;2023-04-03T10:49:25;15.20;87.90
41318;DHT22;27067;51.554;7.026;2023-04-03T10:54:10;15.30;88.00
41318;DHT22;27067;51.554;7.026;2023-04-03T10:56:49;15.30;88.00
41318;DHT22;27067;51.554;7.026;2023-04-03T10:59:27;15.30;87.90
41318;DHT22;27067;51.554;7.026;2023-04-03T11:02:00;15.30;87.90
41318;DHT22;27067;51.554;7.026;2023-04-03T11:04:31;15.30;87.80
41318;DHT22;27067;51.554;7.026;2023-04-03T11:07:14;15.30;87.90
41318;DHT22;27067;51.554;7.026;2023-04-03T11:09:43;15.30;87.80
41318;DHT22;27067;51.554;7.026;2023-04-03T11:15:17;15.20;87.90
41318;DHT22;27067;51.554;7.026;2023-04-03T11:17:51;15.20;88.10
41318;DHT22;27067;51.554;7.026;2023-04-03T11:20:21;15.20;88.20
41318;DHT22;27067;51.554;7.026;2023-04-03T11:23:00;15.20;88.10
41318;DHT22;27067;51.554;7.026;2023-04-03T11:25:29;15.20;87.90
41318;DHT22;27067;51.554;7.026;2023-04-03T11:28:05;15.20;87.80
41318;DHT22;27067;51.554;7.026;2023-04-03T11:33:42;15.30;87.30
41318;DHT22;27067;51.554;7.026;2023-04-03T11:36:19;15.30;87.10
41318;DHT22;27067;51.554;7.026;2023-04-03T11:38:49;15.30;87.10
41318;DHT22;27067;51.554;7.026;2023-04-03T11:41:26;15.30;87.10
41318;DHT22;27067;51.554;7.026;2023-04-03T11:46:59;15.30;86.90
41318;DHT22;27067;51.554;7.026;2023-04-03T11:50:00;15.30;86.90
41318;DHT22;27067;51.554;7.026;2023-04-03T12:14:03;15.10;87.70
41318;DHT22;27067;51.554;7.026;2023-04-03T12:16:30;15.10;87.90
41318;DHT22;27067;51.554;7.026;2023-04-03T12:19:03;15.00;88.10
41318;DHT22;27067;51.554;7.026;2023-04-03T12:40:39;14.80;90.00
41318;DHT22;27067;51.554;7.026;2023-04-03T12:48:51;14.70;90.10
41318;DHT22;27067;51.554;7.026;2023-04-03T12:51:43;14.70;90.20
41318;DHT22;27067;51.554;7.026;2023-04-03T12:54:26;14.70;90.30
41318;DHT22;27067;51.554;7.026;2023-04-03T12:57:12;14.70;90.40
41318;DHT22;27067;51.554;7.026;2023-04-03T12:59:38;14.60;90.40
41318;DHT22;27067;51.554;7.026;2023-04-03T13:04:46;14.60;90.60
41318;DHT22;27067;51.554;7.026;2023-04-03T13:07:32;14.60;90.60
41318;DHT22;27067;51.554;7.026;2023-04-03T13:12:56;14.60;90.60
41318;DHT22;27067;51.554;7.026;2023-04-03T13:15:21;14.60;90.80
41318;DHT22;27067;51.554;7.026;2023-04-03T13:17:49;14.60;90.50
41318;DHT22;27067;51.554;7.026;2023-04-03T13:20:27;14.60;90.50
41318;DHT22;27067;51.554;7.026;2023-04-03T13:23:03;14.60;90.50
41318;DHT22;27067;51.554;7.026;2023-04-03T13:25:35;14.60;90.50
41318;DHT22;27067;51.554;7.026;2023-04-03T13:28:04;14.60;90.50
41318;DHT22;27067;51.554;7.026;2023-04-03T13:30:36;14.60;90.50
41318;DHT22;27067;51.554;7.026;2023-04-03T13:33:05;14.60;90.50
41318;DHT22;27067;51.554;7.026;2023-04-03T13:35:33;14.60;90.50
41318;DHT22;27067;51.554;7.026;2023-04-03T13:40:51;14.50;90.50
41318;DHT22;27067;51.554;7.026;2023-04-03T13:43:21;14.50;90.60
41318;DHT22;27067;51.554;7.026;2023-04-03T13:46:05;14.50;90.80
41318;DHT22;27067;51.554;7.026;2023-04-03T13:48:49;14.50;90.90
41318;DHT22;27067;51.554;7.026;2023-04-03T13:51:31;14.50;91.00
41318;DHT22;27067;51.554;7.026;2023-04-03T13:54:01;14.50;91.10
41318;DHT22;27067;51.554;7.026;2023-04-03T14:02:12;14.60;91.10
41318;DHT22;27067;51.554;7.026;2023-04-03T14:07:13;14.60;91.20
41318;DHT22;27067;51.554;7.026;2023-04-03T14:09:38;14.70;90.90
41318;DHT22;27067;51.554;7.026;2023-04-03T14:14:51;14.70;90.80
41318;DHT22;27067;51.554;7.026;2023-04-03T14:17:20;14.70;90.80
41318;DHT22;27067;51.554;7.026;2023-04-03T14:19:48;14.70;90.80
41318;DHT22;27067;51.554;7.026;2023-04-03T14:24:40;14.70;90.80
41318;DHT22;27067;51.554;7.026;2023-04-03T14:27:11;14.70;90.80
41318;DHT22;27067;51.554;7.026;2023-04-03T14:29:40;14.60;90.80
41318;DHT22;27067;51.554;7.026;2023-04-03T14:32:05;14.60;90.80
41318;DHT22;27067;51.554;7.026;2023-04-03T14:34:31;14.60;90.80
41318;DHT22;27067;51.554;7.026;2023-04-03T14:36:57;14.60;90.90
41318;DHT22;27067;51.554;7.026;2023-04-03T14:39:22;14.60;91.00
41318;DHT22;27067;51.554;7.026;2023-04-03T14:41:48;14.50;91.00
41318;DHT22;27067;51.554;7.026;2023-04-03T14:44:13;14.50;91.00
41318;DHT22;27067;51.554;7.026;2023-04-03T14:46:41;14.50;91.10
41318;DHT22;27067;51.554;7.026;2023-04-03T14:49:18;14.50;91.10
41318;DHT22;27067;51.554;7.026;2023-04-03T14:52:03;14.40;91.10
41318;DHT22;27067;51.554;7.026;2023-04-03T14:54:39;14.90;91.20
41318;DHT22;27067;51.554;7.026;2023-04-03T14:57:08;14.50;91.10
41318;DHT22;27067;51.554;7.026;2023-04-03T14:59:34;14.40;91.10
41318;DHT22;27067;51.554;7.026;2023-04-03T15:02:00;14.40;91.10
41318;DHT22;27067;51.554;7.026;2023-04-03T15:04:25;14.40;91.10
41318;DHT22;27067;51.554;7.026;2023-04-03T15:06:51;14.40;91.20
41318;DHT22;27067;51.554;7.026;2023-04-03T15:09:21;14.40;91.30
41318;DHT22;27067;51.554;7.026;2023-04-03T15:11:48;14.40;91.40
41318;DHT22;27067;51.554;7.026;2023-04-03T15:14:14;14.40;91.60
41318;DHT22;27067;51.554;7.026;2023-04-03T15:16:40;14.50;91.70
41318;DHT22;27067;51.554;7.026;2023-04-03T15:19:05;14.60;91.80
41318;DHT22;27067;51.554;7.026;2023-04-03T15:21:31;14.60;91.70
41318;DHT22;27067;51.554;7.026;2023-04-03T15:23:57;14.70;91.70
41318;DHT22;27067;51.554;7.026;2023-04-03T15:26:22;14.80;91.60
41318;DHT22;27067;51.554;7.026;2023-04-03T15:28:48;14.90;91.50
41318;DHT22;27067;51.554;7.026;2023-04-03T15:31:13;15.00;91.30
41318;DHT22;27067;51.554;7.026;2023-04-03T15:33:39;15.10;91.20
41318;DHT22;27067;51.554;7.026;2023-04-03T15:36:05;15.20;91.00
41318;DHT22;27067;51.554;7.026;2023-04-03T15:38:31;15.20;90.90
41318;DHT22;27067;51.554;7.026;2023-04-03T15:40:56;15.20;90.80
41318;DHT22;27067;51.554;7.026;2023-04-03T15:43:22;15.20;90.70
41318;DHT22;27067;51.554;7.026;2023-04-03T15:45:48;15.20;90.60
41318;DHT22;27067;51.554;7.026;2023-04-03T15:48:14;15.20;90.60
41318;DHT22;27067;51.554;7.026;2023-04-03T15:50:40;15.20;90.60
41318;DHT22;27067;51.554;7.026;2023-04-03T15:53:06;15.20;90.60
41318;DHT22;27067;51.554;7.026;2023-04-03T15:55:32;15.20;90.60
41318;DHT22;27067;51.554;7.026;2023-04-03T15:57:59;15.10;90.60
41318;DHT22;27067;51.554;7.026;2023-04-03T16:00:26;15.10;90.60
41318;DHT22;27067;51.554;7.026;2023-04-03T16:02:56;15.10;90.70
41318;DHT22;27067;51.554;7.026;2023-04-03T16:05:23;15.10;90.70
41318;DHT22;27067;51.554;7.026;2023-04-03T16:07:50;15.10;90.70
41318;DHT22;27067;51.554;7.026;2023-04-03T16:10:17;15.10;90.70
41318;DHT22;27067;51.554;7.026;2023-04-03T16:12:43;15.10;90.60
41318;DHT22;27067;51.554;7.026;2023-04-03T16:15:10;15.10;90.60
41318;DHT22;27067;51.554;7.026;2023-04-03T16:17:37;15.00;90.60
41318;DHT22;27067;51.554;7.026;2023-04-03T16:20:04;15.00;90.50
41318;DHT22;27067;51.554;7.026;2023-04-03T16:22:31;15.00;90.50
41318;DHT22;27067;51.554;7.026;2023-04-03T16:24:56;15.00;90.50
41318;DHT22;27067;51.554;7.026;2023-04-03T16:27:22;15.00;90.50
41318;DHT22;27067;51.554;7.026;2023-04-03T16:29:54;15.00;90.60
41318;DHT22;27067;51.554;7.026;2023-04-03T16:32:21;14.90;90.60
41318;DHT22;27067;51.554;7.026;2023-04-03T16:34:48;14.90;90.60
41318;DHT22;27067;51.554;7.026;2023-04-03T16:37:14;14.90;90.70
41318;DHT22;27067;51.554;7.026;2023-04-03T16:39:40;14.90;90.80
41318;DHT22;27067;51.554;7.026;2023-04-03T16:42:06;14.90;90.90
41318;DHT22;27067;51.554;7.026;2023-04-03T16:44:31;14.90;90.90
41318;DHT22;27067;51.554;7.026;2023-04-03T16:46:57;14.90;91.00
41318;DHT22;27067;51.554;7.026;2023-04-03T16:49:24;15.00;91.00
41318;DHT22;27067;51.554;7.026;2023-04-03T16:51:49;15.10;91.00
41318;DHT22;27067;51.554;7.026;2023-04-03T16:54:15;15.20;90.90
41318;DHT22;27067;51.554;7.026;2023-04-03T16:56:41;15.20;90.80
41318;DHT22;27067;51.554;7.026;2023-04-03T16:59:07;15.20;90.70
41318;DHT22;27067;51.554;7.026;2023-04-03T17:01:32;15.30;90.50
41318;DHT22;27067;51.554;7.026;2023-04-03T17:03:58;15.30;90.40
41318;DHT22;27067;51.554;7.026;2023-04-03T17:06:24;15.30;90.40
41318;DHT22;27067;51.554;7.026;2023-04-03T17:08:51;15.30;90.30
41318;DHT22;27067;51.554;7.026;2023-04-03T17:11:18;15.30;90.30
41318;DHT22;27067;51.554;7.026;2023-04-03T17:13:44;15.40;90.20
41318;DHT22;27067;51.554;7.026;2023-04-03T17:16:13;15.30;90.20
41318;DHT22;27067;51.554;7.026;2023-04-03T17:18:39;15.30;90.20
41318;DHT22;27067;51.554;7.026;2023-04-03T17:21:06;15.30;90.20
41318;DHT22;27067;51.554;7.026;2023-04-03T17:23:33;15.30;90.20
41318;DHT22;27067;51.554;7.026;2023-04-03T17:26:01;15.30;90.20
41318;DHT22;27067;51.554;7.026;2023-04-03T17:28:27;15.30;90.20
41318;DHT22;27067;51.554;7.026;2023-04-03T17:30:57;15.20;90.20
41318;DHT22;27067;51.554;7.026;2023-04-03T17:33:24;15.20;90.20
41318;DHT22;27067;51.554;7.026;2023-04-03T17:35:51;15.20;90.20
41318;DHT22;27067;51.554;7.026;2023-04-03T17:38:16;15.20;90.30
41318;DHT22;27067;51.554;7.026;2023-04-03T17:40:42;15.20;90.30
41318;DHT22;27067;51.554;7.026;2023-04-03T17:43:10;15.10;90.30
41318;DHT22;27067;51.554;7.026;2023-04-03T17:45:36;15.10;90.30
41318;DHT22;27067;51.554;7.026;2023-04-03T17:48:02;15.10;90.30
41318;DHT22;27067;51.554;7.026;2023-04-03T17:50:28;15.10;90.40